LGL405 ELLX-GOBD
Flight info
| Callsign | LGL405 |
|---|---|
| Flight time | 6h 2m |
| Altitude | 31000 |
| Route | RAPOR DCT GIMER DCT AHVEC UN857 RESMI/N0444F330 UN857 DISAK DCT ARKIP DCT ARNAV DCT LMG DCT UVELI DCT OSMOB DCT VAVIX DCT NETUK N857 BAN N10 CJN L27 BLN N869 GALTO UN869 RBT/N0448F350 UN869 ADM UA600 SOLNA L660 ARENA/N0452F360 L660 MAURI DCT PE UB600 LIMAX LIMAX1A |
| Aircraft | B738/M-SDE2E3FGHIJ1RWXY/LB1V1 |
Departure
| Time | 2026-04-26 12:47 |
|---|---|
| Airport | Luxembourg-Findel International Airport (ELLX) |
Arrival
| Time | 2026-04-26 18:49 |
|---|---|
| Airport | Blaise Diagne International Airport (GOBD) |
| Time | Latitude | Longitude | Altitude | Speed | Heading |
|---|---|---|---|---|---|
| 2026-04-26 12:20 | 49.63121 | 6.21530 | 1252 ft | 0 kts | 240° |
| 2026-04-26 12:34 | 49.63121 | 6.21529 | 1237 ft | 0 kts | 240° |
| 2026-04-26 12:35 | 49.63123 | 6.21535 | 1237 ft | 3 kts | 239° |
| 2026-04-26 12:35 | 49.63139 | 6.21567 | 1255 ft | 4 kts | 218° |
| 2026-04-26 12:35 | 49.63161 | 6.21583 | 1250 ft | 4 kts | 174° |
| 2026-04-26 12:35 | 49.63174 | 6.21578 | 1251 ft | 0 kts | 150° |
| 2026-04-26 12:36 | 49.63180 | 6.21574 | 1249 ft | 0 kts | 150° |
| 2026-04-26 12:40 | 49.63174 | 6.21579 | 1247 ft | 3 kts | 150° |
| 2026-04-26 12:40 | 49.63139 | 6.21609 | 1237 ft | 8 kts | 150° |
| 2026-04-26 12:41 | 49.63085 | 6.21630 | 1235 ft | 9 kts | 206° |
| 2026-04-26 12:41 | 49.63048 | 6.21555 | 1237 ft | 10 kts | 243° |
| 2026-04-26 12:41 | 49.63012 | 6.21441 | 1240 ft | 14 kts | 244° |
| 2026-04-26 12:41 | 49.62964 | 6.21283 | 1237 ft | 18 kts | 245° |
| 2026-04-26 12:42 | 49.62910 | 6.21105 | 1237 ft | 18 kts | 245° |
| 2026-04-26 12:42 | 49.62856 | 6.20934 | 1240 ft | 17 kts | 244° |
| 2026-04-26 12:42 | 49.62803 | 6.20769 | 1238 ft | 17 kts | 240° |
| 2026-04-26 12:42 | 49.62720 | 6.20648 | 1249 ft | 16 kts | 215° |
| 2026-04-26 12:43 | 49.62637 | 6.20538 | 1245 ft | 16 kts | 228° |
| 2026-04-26 12:43 | 49.62567 | 6.20416 | 1246 ft | 15 kts | 228° |
| 2026-04-26 12:43 | 49.62497 | 6.20283 | 1233 ft | 17 kts | 236° |
| 2026-04-26 12:43 | 49.62429 | 6.20108 | 1224 ft | 21 kts | 240° |
| 2026-04-26 12:44 | 49.62355 | 6.19909 | 1214 ft | 21 kts | 240° |
| 2026-04-26 12:44 | 49.62283 | 6.19716 | 1204 ft | 19 kts | 240° |
| 2026-04-26 12:44 | 49.62229 | 6.19573 | 1196 ft | 8 kts | 237° |
| 2026-04-26 12:44 | 49.62180 | 6.19559 | 1195 ft | 5 kts | 158° |
| 2026-04-26 12:45 | 49.62171 | 6.19566 | 1196 ft | 1 kts | 152° |
| 2026-04-26 12:45 | 49.62168 | 6.19569 | 1196 ft | 1 kts | 152° |
| 2026-04-26 12:45 | 49.62164 | 6.19572 | 1196 ft | 1 kts | 151° |
| 2026-04-26 12:45 | 49.62150 | 6.19584 | 1198 ft | 5 kts | 151° |
| 2026-04-26 12:46 | 49.62103 | 6.19634 | 1201 ft | 11 kts | 124° |
| 2026-04-26 12:46 | 49.62099 | 6.19674 | 1203 ft | 3 kts | 78° |
| 2026-04-26 12:46 | 49.62110 | 6.19712 | 1205 ft | 10 kts | 63° |
| 2026-04-26 12:46 | 49.62261 | 6.20122 | 1225 ft | 78 kts | 59° |
| 2026-04-26 12:47 | 49.62643 | 6.21137 | 1240 ft | 140 kts | 60° |
| 2026-04-26 12:47 | 49.63215 | 6.22672 | 1405 ft | 179 kts | 60° |
| 2026-04-26 12:47 | 49.63789 | 6.24257 | 2540 ft | 160 kts | 58° |
| 2026-04-26 12:47 | 49.64356 | 6.25751 | 3242 ft | 168 kts | 60° |
| 2026-04-26 12:48 | 49.64996 | 6.27460 | 3475 ft | 200 kts | 59° |
| 2026-04-26 12:48 | 49.65741 | 6.29466 | 3690 ft | 225 kts | 60° |
| 2026-04-26 12:48 | 49.66539 | 6.31616 | 4067 ft | 236 kts | 59° |
| 2026-04-26 12:48 | 49.67358 | 6.33841 | 4609 ft | 243 kts | 59° |
| 2026-04-26 12:49 | 49.68241 | 6.36190 | 4916 ft | 266 kts | 54° |
| 2026-04-26 12:49 | 49.69594 | 6.38074 | 5747 ft | 263 kts | 24° |
| 2026-04-26 12:49 | 49.71395 | 6.38654 | 6551 ft | 265 kts | 356° |
| 2026-04-26 12:49 | 49.73145 | 6.37916 | 7225 ft | 270 kts | 331° |
| 2026-04-26 12:50 | 49.74539 | 6.35968 | 7929 ft | 275 kts | 304° |
| 2026-04-26 12:50 | 49.75208 | 6.33196 | 8622 ft | 281 kts | 277° |
| 2026-04-26 12:50 | 49.75118 | 6.30147 | 9271 ft | 288 kts | 261° |
| 2026-04-26 12:50 | 49.74721 | 6.27110 | 10008 ft | 289 kts | 259° |
| 2026-04-26 12:51 | 49.74263 | 6.24063 | 10602 ft | 295 kts | 258° |
| 2026-04-26 12:51 | 49.73776 | 6.20865 | 10756 ft | 317 kts | 258° |
| 2026-04-26 12:51 | 49.73260 | 6.17441 | 10932 ft | 337 kts | 258° |
| 2026-04-26 12:51 | 49.72719 | 6.13810 | 11121 ft | 355 kts | 258° |
| 2026-04-26 12:52 | 49.72164 | 6.10042 | 11594 ft | 363 kts | 258° |
| 2026-04-26 12:52 | 49.71609 | 6.06227 | 12281 ft | 364 kts | 258° |
| 2026-04-26 12:52 | 49.71053 | 6.02397 | 12980 ft | 366 kts | 258° |
| 2026-04-26 12:52 | 49.70495 | 5.98540 | 13608 ft | 370 kts | 258° |
| 2026-04-26 12:53 | 49.69930 | 5.94639 | 14221 ft | 373 kts | 258° |
| 2026-04-26 12:53 | 49.69363 | 5.90717 | 14812 ft | 376 kts | 259° |
| 2026-04-26 12:53 | 49.68791 | 5.86766 | 15416 ft | 378 kts | 258° |
| 2026-04-26 12:53 | 49.68215 | 5.82798 | 15986 ft | 380 kts | 258° |
| 2026-04-26 12:54 | 49.67635 | 5.78807 | 16576 ft | 382 kts | 258° |
| 2026-04-26 12:54 | 49.67048 | 5.74788 | 17140 ft | 385 kts | 258° |
| 2026-04-26 12:54 | 49.66458 | 5.70749 | 17696 ft | 387 kts | 258° |
| 2026-04-26 12:54 | 49.65862 | 5.66686 | 18257 ft | 389 kts | 258° |
| 2026-04-26 12:55 | 49.65261 | 5.62602 | 18772 ft | 392 kts | 258° |
| 2026-04-26 12:55 | 49.64655 | 5.58487 | 19229 ft | 394 kts | 259° |
| 2026-04-26 12:55 | 49.64043 | 5.54352 | 19666 ft | 397 kts | 259° |
| 2026-04-26 12:55 | 49.63426 | 5.50185 | 20095 ft | 400 kts | 259° |
| 2026-04-26 12:56 | 49.62804 | 5.46000 | 20521 ft | 402 kts | 259° |
| 2026-04-26 12:56 | 49.62175 | 5.41780 | 20947 ft | 404 kts | 259° |
| 2026-04-26 12:56 | 49.61542 | 5.37540 | 21334 ft | 407 kts | 259° |
| 2026-04-26 12:56 | 49.60903 | 5.33279 | 21743 ft | 409 kts | 259° |
| 2026-04-26 12:57 | 49.60260 | 5.28992 | 22139 ft | 412 kts | 259° |
| 2026-04-26 12:57 | 49.59612 | 5.24684 | 22526 ft | 414 kts | 259° |
| 2026-04-26 12:57 | 49.58955 | 5.20355 | 22889 ft | 416 kts | 259° |
| 2026-04-26 12:58 | 49.57478 | 5.11734 | 23597 ft | 421 kts | 257° |
| 2026-04-26 12:58 | 49.56706 | 5.07468 | 23917 ft | 424 kts | 257° |
| 2026-04-26 12:58 | 49.55912 | 5.03089 | 24200 ft | 425 kts | 257° |
| 2026-04-26 12:58 | 49.55120 | 4.98702 | 24515 ft | 426 kts | 257° |
| 2026-04-26 12:59 | 49.54328 | 4.94299 | 24810 ft | 427 kts | 257° |
| 2026-04-26 12:59 | 49.53537 | 4.89886 | 25092 ft | 428 kts | 257° |
| 2026-04-26 12:59 | 49.53002 | 4.86899 | 25297 ft | 428 kts | 257° |
| 2026-04-26 12:59 | 49.51950 | 4.81032 | 25650 ft | 430 kts | 257° |
| 2026-04-26 13:00 | 49.51412 | 4.78034 | 25808 ft | 432 kts | 257° |
| 2026-04-26 13:00 | 49.50620 | 4.73631 | 26056 ft | 433 kts | 257° |
| 2026-04-26 13:00 | 49.49814 | 4.69162 | 26306 ft | 435 kts | 257° |
| 2026-04-26 13:00 | 49.49002 | 4.64669 | 26584 ft | 437 kts | 257° |
| 2026-04-26 13:01 | 49.48186 | 4.60166 | 26917 ft | 438 kts | 257° |
| 2026-04-26 13:01 | 49.47365 | 4.55649 | 27228 ft | 439 kts | 257° |
| 2026-04-26 13:01 | 49.46541 | 4.51124 | 27509 ft | 441 kts | 257° |
| 2026-04-26 13:01 | 49.45710 | 4.46571 | 27793 ft | 443 kts | 257° |
| 2026-04-26 13:02 | 49.44875 | 4.42009 | 28022 ft | 445 kts | 257° |
| 2026-04-26 13:02 | 49.44031 | 4.37413 | 28265 ft | 447 kts | 257° |
| 2026-04-26 13:02 | 49.43184 | 4.32811 | 28576 ft | 448 kts | 257° |
| 2026-04-26 13:02 | 49.42337 | 4.28220 | 28993 ft | 446 kts | 257° |
| 2026-04-26 13:03 | 49.41492 | 4.23655 | 29447 ft | 443 kts | 257° |
| 2026-04-26 13:03 | 49.40649 | 4.19108 | 29847 ft | 442 kts | 257° |
| 2026-04-26 13:03 | 49.39808 | 4.14577 | 30187 ft | 442 kts | 257° |
| 2026-04-26 13:03 | 49.38965 | 4.10043 | 30497 ft | 441 kts | 257° |
| 2026-04-26 13:04 | 49.38122 | 4.05525 | 30816 ft | 440 kts | 257° |
| 2026-04-26 13:04 | 49.37275 | 4.01021 | 31140 ft | 439 kts | 256° |
| 2026-04-26 13:04 | 49.34609 | 3.92477 | 31262 ft | 452 kts | 240° |
| 2026-04-26 13:05 | 49.31076 | 3.84504 | 31245 ft | 450 kts | 239° |
| 2026-04-26 13:05 | 49.27579 | 3.76628 | 31243 ft | 446 kts | 240° |
| 2026-04-26 13:06 | 49.24120 | 3.68758 | 31238 ft | 445 kts | 240° |
| 2026-04-26 13:06 | 49.20671 | 3.60889 | 31240 ft | 445 kts | 240° |
| 2026-04-26 13:07 | 49.17240 | 3.53076 | 31228 ft | 445 kts | 240° |
| 2026-04-26 13:07 | 49.13783 | 3.45229 | 31248 ft | 444 kts | 240° |
| 2026-04-26 13:08 | 49.10420 | 3.37509 | 31230 ft | 429 kts | 240° |
| 2026-04-26 13:08 | 49.07133 | 3.30082 | 31233 ft | 416 kts | 240° |
| 2026-04-26 13:09 | 49.03935 | 3.22907 | 31232 ft | 402 kts | 240° |
| 2026-04-26 13:09 | 49.00838 | 3.15970 | 31236 ft | 390 kts | 240° |
| 2026-04-26 13:10 | 48.97822 | 3.09300 | 31236 ft | 377 kts | 240° |
| 2026-04-26 13:10 | 48.94806 | 3.02592 | 31266 ft | 392 kts | 240° |
| 2026-04-26 13:11 | 48.91672 | 2.95588 | 31267 ft | 409 kts | 240° |
| 2026-04-26 13:11 | 48.88401 | 2.88315 | 31262 ft | 424 kts | 239° |
| 2026-04-26 13:12 | 48.85007 | 2.80797 | 31270 ft | 439 kts | 239° |
| 2026-04-26 13:12 | 48.81500 | 2.73052 | 31250 ft | 451 kts | 239° |
| 2026-04-26 13:13 | 48.77938 | 2.65199 | 31228 ft | 452 kts | 239° |
| 2026-04-26 13:13 | 48.74418 | 2.57454 | 31221 ft | 447 kts | 239° |
| 2026-04-26 13:14 | 48.70879 | 2.49688 | 31233 ft | 442 kts | 239° |
| 2026-04-26 13:14 | 48.67401 | 2.42068 | 31243 ft | 444 kts | 239° |
| 2026-04-26 13:15 | 48.63881 | 2.34380 | 31242 ft | 446 kts | 239° |
| 2026-04-26 13:15 | 48.60342 | 2.26673 | 31239 ft | 447 kts | 239° |
| 2026-04-26 13:16 | 48.56001 | 2.19928 | 31252 ft | 458 kts | 214° |
| 2026-04-26 13:16 | 48.53109 | 2.17849 | 31231 ft | 466 kts | 201° |
| 2026-04-26 13:16 | 48.49947 | 2.16717 | 31255 ft | 469 kts | 194° |
| 2026-04-26 13:17 | 48.40334 | 2.13863 | 31219 ft | 469 kts | 195° |
| 2026-04-26 13:18 | 48.30764 | 2.10818 | 31225 ft | 469 kts | 192° |
| 2026-04-26 13:18 | 48.24197 | 2.10670 | 31259 ft | 478 kts | 173° |
| 2026-04-26 13:19 | 48.20911 | 2.11488 | 31482 ft | 479 kts | 173° |
| 2026-04-26 13:19 | 48.17626 | 2.12277 | 31801 ft | 477 kts | 173° |
| 2026-04-26 13:19 | 48.14352 | 2.12932 | 32133 ft | 473 kts | 179° |
| 2026-04-26 13:19 | 48.11076 | 2.12949 | 32451 ft | 468 kts | 189° |
| 2026-04-26 13:20 | 48.07861 | 2.12334 | 32764 ft | 465 kts | 191° |
| 2026-04-26 13:20 | 48.04660 | 2.11652 | 33030 ft | 464 kts | 191° |
| 2026-04-26 13:20 | 48.01463 | 2.10974 | 33236 ft | 465 kts | 191° |
| 2026-04-26 13:21 | 47.94994 | 2.09661 | 33238 ft | 470 kts | 191° |
| 2026-04-26 13:21 | 47.88534 | 2.08416 | 33226 ft | 465 kts | 190° |
| 2026-04-26 13:22 | 47.82140 | 2.07196 | 33243 ft | 463 kts | 190° |
| 2026-04-26 13:22 | 47.75754 | 2.05975 | 33200 ft | 463 kts | 190° |
| 2026-04-26 13:23 | 47.69370 | 2.04756 | 33210 ft | 463 kts | 190° |
| 2026-04-26 13:23 | 47.63004 | 2.03360 | 33201 ft | 461 kts | 197° |
| 2026-04-26 13:24 | 47.57068 | 2.00149 | 33197 ft | 457 kts | 205° |
| 2026-04-26 13:24 | 47.51167 | 1.96600 | 33205 ft | 459 kts | 205° |
| 2026-04-26 13:25 | 47.45178 | 1.93083 | 33200 ft | 461 kts | 205° |
| 2026-04-26 13:25 | 47.39239 | 1.89651 | 33203 ft | 462 kts | 205° |
| 2026-04-26 13:26 | 47.33246 | 1.86203 | 33181 ft | 463 kts | 204° |
| 2026-04-26 13:26 | 47.27239 | 1.82751 | 33184 ft | 464 kts | 204° |
| 2026-04-26 13:27 | 47.21214 | 1.79296 | 33188 ft | 465 kts | 204° |
| 2026-04-26 13:27 | 47.15172 | 1.75871 | 33178 ft | 465 kts | 204° |
| 2026-04-26 13:28 | 47.09123 | 1.72477 | 33210 ft | 465 kts | 204° |
| 2026-04-26 13:28 | 47.03125 | 1.69118 | 33203 ft | 466 kts | 204° |
| 2026-04-26 13:29 | 46.97072 | 1.65731 | 33212 ft | 465 kts | 204° |
| 2026-04-26 13:29 | 46.91031 | 1.62357 | 33211 ft | 465 kts | 204° |
| 2026-04-26 13:30 | 46.84988 | 1.58989 | 33203 ft | 464 kts | 204° |
| 2026-04-26 13:30 | 46.78952 | 1.55633 | 33212 ft | 464 kts | 204° |
| 2026-04-26 13:31 | 46.72929 | 1.52293 | 33214 ft | 463 kts | 204° |
| 2026-04-26 13:31 | 46.66904 | 1.48960 | 33202 ft | 463 kts | 204° |
| 2026-04-26 13:32 | 46.60894 | 1.45644 | 33205 ft | 462 kts | 204° |
| 2026-04-26 13:32 | 46.54882 | 1.42333 | 33195 ft | 462 kts | 204° |
| 2026-04-26 13:33 | 46.48877 | 1.39035 | 33203 ft | 462 kts | 204° |
| 2026-04-26 13:33 | 46.42858 | 1.35736 | 33201 ft | 463 kts | 204° |
| 2026-04-26 13:34 | 46.36823 | 1.32436 | 33189 ft | 464 kts | 204° |
| 2026-04-26 13:34 | 46.30767 | 1.29133 | 33195 ft | 465 kts | 203° |
| 2026-04-26 13:35 | 46.24708 | 1.25837 | 33197 ft | 466 kts | 203° |
| 2026-04-26 13:35 | 46.18628 | 1.22536 | 33191 ft | 467 kts | 203° |
| 2026-04-26 13:36 | 46.12529 | 1.19233 | 33186 ft | 468 kts | 203° |
| 2026-04-26 13:36 | 46.06429 | 1.15938 | 33182 ft | 468 kts | 203° |
| 2026-04-26 13:37 | 46.00333 | 1.12652 | 33183 ft | 468 kts | 203° |
| 2026-04-26 13:37 | 45.94241 | 1.09376 | 33175 ft | 467 kts | 202° |
| 2026-04-26 13:38 | 45.88194 | 1.06130 | 33187 ft | 466 kts | 202° |
| 2026-04-26 13:38 | 45.82184 | 1.02662 | 33175 ft | 464 kts | 211° |
| 2026-04-26 13:39 | 45.77014 | 0.97320 | 33193 ft | 457 kts | 223° |
| 2026-04-26 13:39 | 45.72173 | 0.91399 | 33187 ft | 457 kts | 223° |
| 2026-04-26 13:40 | 45.67313 | 0.85520 | 33174 ft | 458 kts | 223° |
| 2026-04-26 13:40 | 45.62422 | 0.79673 | 33172 ft | 459 kts | 223° |
| 2026-04-26 13:41 | 45.57516 | 0.73842 | 33178 ft | 459 kts | 222° |
| 2026-04-26 13:41 | 45.52607 | 0.68022 | 33162 ft | 459 kts | 222° |
| 2026-04-26 13:42 | 45.47693 | 0.62209 | 33170 ft | 459 kts | 222° |
| 2026-04-26 13:42 | 45.42772 | 0.56399 | 33169 ft | 459 kts | 222° |
| 2026-04-26 13:43 | 45.37849 | 0.50599 | 33159 ft | 460 kts | 222° |
| 2026-04-26 13:43 | 45.32923 | 0.44811 | 33171 ft | 459 kts | 222° |
| 2026-04-26 13:44 | 45.27995 | 0.39034 | 33172 ft | 460 kts | 222° |
| 2026-04-26 13:44 | 45.23063 | 0.33264 | 33181 ft | 459 kts | 221° |
| 2026-04-26 13:45 | 45.18132 | 0.27509 | 33166 ft | 459 kts | 221° |
| 2026-04-26 13:45 | 45.14036 | 0.22739 | 33183 ft | 458 kts | 221° |
| 2026-04-26 13:46 | 45.09110 | 0.17013 | 33174 ft | 458 kts | 221° |
| 2026-04-26 13:46 | 45.04183 | 0.11299 | 33184 ft | 458 kts | 221° |
| 2026-04-26 13:47 | 44.99263 | 0.05609 | 33178 ft | 457 kts | 221° |
| 2026-04-26 13:47 | 44.94328 | -0.00085 | 33184 ft | 458 kts | 221° |
| 2026-04-26 13:48 | 44.89404 | -0.05757 | 33183 ft | 457 kts | 221° |
| 2026-04-26 13:48 | 44.84473 | -0.11424 | 33177 ft | 457 kts | 221° |
| 2026-04-26 13:49 | 44.79542 | -0.17078 | 33178 ft | 457 kts | 221° |
| 2026-04-26 13:49 | 44.74606 | -0.22727 | 33181 ft | 457 kts | 221° |
| 2026-04-26 13:50 | 44.69673 | -0.28361 | 33180 ft | 457 kts | 220° |
| 2026-04-26 13:50 | 44.64730 | -0.33976 | 33180 ft | 457 kts | 219° |
| 2026-04-26 13:51 | 44.59538 | -0.39139 | 33177 ft | 459 kts | 216° |
| 2026-04-26 13:51 | 44.54237 | -0.44138 | 33172 ft | 459 kts | 215° |
| 2026-04-26 13:52 | 44.48951 | -0.49165 | 33189 ft | 459 kts | 216° |
| 2026-04-26 13:52 | 44.43685 | -0.54212 | 33186 ft | 459 kts | 216° |
| 2026-04-26 13:53 | 44.38454 | -0.59227 | 33180 ft | 459 kts | 216° |
| 2026-04-26 13:53 | 44.33311 | -0.64143 | 33187 ft | 459 kts | 216° |
| 2026-04-26 13:54 | 44.28042 | -0.69167 | 33187 ft | 459 kts | 216° |
| 2026-04-26 13:54 | 44.22737 | -0.74113 | 33184 ft | 459 kts | 214° |
| 2026-04-26 13:55 | 44.15589 | -0.80647 | 33189 ft | 459 kts | 214° |
| 2026-04-26 13:56 | 44.06718 | -0.88760 | 33186 ft | 459 kts | 214° |
| 2026-04-26 13:56 | 44.01385 | -0.93634 | 33182 ft | 459 kts | 214° |
| 2026-04-26 13:57 | 43.96057 | -0.98494 | 33185 ft | 458 kts | 214° |
| 2026-04-26 13:57 | 43.90729 | -1.03343 | 33184 ft | 458 kts | 214° |
| 2026-04-26 13:58 | 43.85403 | -1.08179 | 33185 ft | 458 kts | 214° |
| 2026-04-26 13:58 | 43.80070 | -1.13010 | 33180 ft | 458 kts | 214° |
| 2026-04-26 13:59 | 43.74745 | -1.17824 | 33189 ft | 457 kts | 214° |
| 2026-04-26 13:59 | 43.69424 | -1.22624 | 33183 ft | 457 kts | 214° |
| 2026-04-26 14:00 | 43.58776 | -1.32199 | 33185 ft | 456 kts | 213° |
| 2026-04-26 14:01 | 43.53452 | -1.36971 | 33188 ft | 456 kts | 213° |
| 2026-04-26 14:01 | 43.48129 | -1.41733 | 33184 ft | 456 kts | 213° |
| 2026-04-26 14:02 | 43.42805 | -1.46485 | 33184 ft | 456 kts | 213° |
| 2026-04-26 14:02 | 43.37474 | -1.51234 | 33183 ft | 456 kts | 213° |
| 2026-04-26 14:03 | 43.32168 | -1.55952 | 33191 ft | 459 kts | 213° |
| 2026-04-26 14:03 | 43.26679 | -1.60418 | 33182 ft | 459 kts | 203° |
| 2026-04-26 14:04 | 43.20536 | -1.62648 | 33186 ft | 458 kts | 186° |
| 2026-04-26 14:04 | 43.14200 | -1.63602 | 33174 ft | 458 kts | 186° |
| 2026-04-26 14:05 | 43.07877 | -1.64565 | 33152 ft | 458 kts | 186° |
| 2026-04-26 14:05 | 43.01549 | -1.65588 | 33147 ft | 457 kts | 186° |
| 2026-04-26 14:06 | 42.95241 | -1.66628 | 33139 ft | 457 kts | 186° |
| 2026-04-26 14:06 | 42.89047 | -1.67644 | 33133 ft | 456 kts | 186° |
| 2026-04-26 14:07 | 42.82754 | -1.68673 | 33135 ft | 455 kts | 186° |
| 2026-04-26 14:07 | 42.76473 | -1.69702 | 33130 ft | 455 kts | 187° |
| 2026-04-26 14:08 | 42.70433 | -1.72006 | 33121 ft | 456 kts | 205° |
| 2026-04-26 14:08 | 42.64768 | -1.75890 | 33122 ft | 456 kts | 206° |
| 2026-04-26 14:09 | 42.59109 | -1.79784 | 33124 ft | 456 kts | 206° |
| 2026-04-26 14:09 | 42.53421 | -1.83612 | 33121 ft | 456 kts | 206° |
| 2026-04-26 14:10 | 42.47722 | -1.87416 | 33098 ft | 457 kts | 206° |
| 2026-04-26 14:10 | 42.42022 | -1.91216 | 33102 ft | 456 kts | 206° |
| 2026-04-26 14:11 | 42.33499 | -1.96898 | 33100 ft | 455 kts | 206° |
| 2026-04-26 14:11 | 42.27828 | -2.00679 | 33103 ft | 454 kts | 206° |
| 2026-04-26 14:12 | 42.22168 | -2.04440 | 33109 ft | 452 kts | 206° |
| 2026-04-26 14:12 | 42.16526 | -2.08177 | 33117 ft | 451 kts | 206° |
| 2026-04-26 14:13 | 42.08098 | -2.13743 | 33119 ft | 449 kts | 206° |
| 2026-04-26 14:14 | 42.02488 | -2.17440 | 33135 ft | 448 kts | 206° |
| 2026-04-26 14:14 | 41.96898 | -2.21117 | 33133 ft | 447 kts | 206° |
| 2026-04-26 14:15 | 41.91316 | -2.24781 | 33135 ft | 446 kts | 207° |
| 2026-04-26 14:15 | 41.85735 | -2.28440 | 33132 ft | 446 kts | 207° |
| 2026-04-26 14:16 | 41.80165 | -2.32083 | 33125 ft | 446 kts | 206° |
| 2026-04-26 14:16 | 41.74593 | -2.35719 | 33130 ft | 445 kts | 206° |
| 2026-04-26 14:17 | 41.69051 | -2.39331 | 33129 ft | 446 kts | 207° |
| 2026-04-26 14:17 | 41.63434 | -2.42983 | 33123 ft | 446 kts | 206° |
| 2026-04-26 14:18 | 41.57888 | -2.46584 | 33119 ft | 446 kts | 206° |
| 2026-04-26 14:18 | 41.52296 | -2.50207 | 33119 ft | 447 kts | 206° |
| 2026-04-26 14:19 | 41.46704 | -2.53816 | 33113 ft | 446 kts | 206° |
| 2026-04-26 14:19 | 41.41114 | -2.57409 | 33117 ft | 446 kts | 206° |
| 2026-04-26 14:20 | 41.35515 | -2.60942 | 33115 ft | 446 kts | 202° |
| 2026-04-26 14:20 | 41.29467 | -2.62688 | 33120 ft | 447 kts | 183° |
| 2026-04-26 14:21 | 41.23249 | -2.62292 | 33121 ft | 448 kts | 176° |
| 2026-04-26 14:21 | 41.17036 | -2.61635 | 33116 ft | 447 kts | 177° |
| 2026-04-26 14:22 | 41.10831 | -2.61048 | 33110 ft | 447 kts | 177° |
| 2026-04-26 14:22 | 41.04627 | -2.60492 | 33117 ft | 447 kts | 177° |
| 2026-04-26 14:23 | 40.98430 | -2.59939 | 33116 ft | 446 kts | 177° |
| 2026-04-26 14:23 | 40.92227 | -2.59383 | 33116 ft | 446 kts | 176° |
| 2026-04-26 14:24 | 40.86028 | -2.58829 | 33105 ft | 447 kts | 176° |
| 2026-04-26 14:24 | 40.79822 | -2.58276 | 33103 ft | 447 kts | 176° |
| 2026-04-26 14:25 | 40.73623 | -2.57724 | 33117 ft | 447 kts | 176° |
| 2026-04-26 14:25 | 40.67421 | -2.57173 | 33110 ft | 447 kts | 177° |
| 2026-04-26 14:26 | 40.61214 | -2.56622 | 33110 ft | 447 kts | 176° |
| 2026-04-26 14:26 | 40.55004 | -2.56072 | 33115 ft | 447 kts | 176° |
| 2026-04-26 14:27 | 40.48838 | -2.55527 | 33098 ft | 447 kts | 176° |
| 2026-04-26 14:27 | 40.42630 | -2.54978 | 33105 ft | 447 kts | 176° |
| 2026-04-26 14:28 | 40.36435 | -2.55206 | 33109 ft | 446 kts | 191° |
| 2026-04-26 14:28 | 40.30535 | -2.57691 | 33115 ft | 446 kts | 202° |
| 2026-04-26 14:29 | 40.24769 | -2.60678 | 33101 ft | 446 kts | 201° |
| 2026-04-26 14:29 | 40.18980 | -2.63635 | 33091 ft | 447 kts | 201° |
| 2026-04-26 14:30 | 40.13171 | -2.66554 | 33106 ft | 447 kts | 201° |
| 2026-04-26 14:30 | 40.07352 | -2.69459 | 33112 ft | 448 kts | 201° |
| 2026-04-26 14:31 | 40.01529 | -2.72359 | 33105 ft | 449 kts | 201° |
| 2026-04-26 14:31 | 39.95690 | -2.75263 | 33106 ft | 449 kts | 201° |
| 2026-04-26 14:32 | 39.89846 | -2.78165 | 33117 ft | 450 kts | 201° |
| 2026-04-26 14:32 | 39.83992 | -2.81067 | 33114 ft | 450 kts | 201° |
| 2026-04-26 14:33 | 39.79124 | -2.83476 | 33117 ft | 450 kts | 201° |
| 2026-04-26 14:33 | 39.73264 | -2.86372 | 33113 ft | 451 kts | 200° |
| 2026-04-26 14:34 | 39.67401 | -2.89264 | 33117 ft | 451 kts | 200° |
| 2026-04-26 14:34 | 39.61526 | -2.92157 | 33111 ft | 452 kts | 200° |
| 2026-04-26 14:35 | 39.55649 | -2.95048 | 33112 ft | 452 kts | 200° |
| 2026-04-26 14:35 | 39.49773 | -2.97944 | 33108 ft | 453 kts | 200° |
| 2026-04-26 14:36 | 39.43879 | -3.00845 | 33108 ft | 453 kts | 200° |
| 2026-04-26 14:36 | 39.37982 | -3.03736 | 33114 ft | 454 kts | 200° |
| 2026-04-26 14:37 | 39.32067 | -3.06609 | 33105 ft | 454 kts | 200° |
| 2026-04-26 14:37 | 39.26147 | -3.09476 | 33090 ft | 454 kts | 201° |
| 2026-04-26 14:38 | 39.20225 | -3.12342 | 33097 ft | 455 kts | 201° |
| 2026-04-26 14:38 | 39.14304 | -3.15204 | 33086 ft | 455 kts | 201° |
| 2026-04-26 14:39 | 39.08372 | -3.18067 | 33084 ft | 455 kts | 200° |
| 2026-04-26 14:39 | 39.02445 | -3.20923 | 33082 ft | 455 kts | 201° |
| 2026-04-26 14:40 | 38.96512 | -3.23778 | 33077 ft | 455 kts | 201° |
| 2026-04-26 14:40 | 38.90578 | -3.26638 | 33076 ft | 456 kts | 201° |
| 2026-04-26 14:41 | 38.84641 | -3.29496 | 33076 ft | 456 kts | 200° |
| 2026-04-26 14:41 | 38.78693 | -3.32354 | 33069 ft | 457 kts | 201° |
| 2026-04-26 14:42 | 38.72734 | -3.35212 | 33068 ft | 458 kts | 201° |
| 2026-04-26 14:42 | 38.66768 | -3.38068 | 33067 ft | 458 kts | 200° |
| 2026-04-26 14:43 | 38.60830 | -3.40905 | 33083 ft | 458 kts | 201° |
| 2026-04-26 14:43 | 38.54857 | -3.43754 | 33073 ft | 459 kts | 201° |
| 2026-04-26 14:44 | 38.48878 | -3.46601 | 33066 ft | 458 kts | 201° |
| 2026-04-26 14:44 | 38.42907 | -3.49439 | 33072 ft | 457 kts | 201° |
| 2026-04-26 14:45 | 38.36954 | -3.52264 | 33057 ft | 456 kts | 201° |
| 2026-04-26 14:45 | 38.31011 | -3.55080 | 33055 ft | 455 kts | 201° |
| 2026-04-26 14:46 | 38.25085 | -3.57882 | 33061 ft | 454 kts | 201° |
| 2026-04-26 14:46 | 38.19160 | -3.60679 | 33051 ft | 454 kts | 201° |
| 2026-04-26 14:47 | 38.13268 | -3.63544 | 33044 ft | 453 kts | 204° |
| 2026-04-26 14:47 | 38.07509 | -3.66786 | 33053 ft | 452 kts | 205° |
| 2026-04-26 14:48 | 38.01781 | -3.70104 | 33050 ft | 453 kts | 205° |
| 2026-04-26 14:48 | 37.96036 | -3.73390 | 33047 ft | 454 kts | 205° |
| 2026-04-26 14:49 | 37.90263 | -3.76652 | 33052 ft | 454 kts | 205° |
| 2026-04-26 14:49 | 37.84482 | -3.79906 | 33051 ft | 455 kts | 205° |
| 2026-04-26 14:50 | 37.78690 | -3.83159 | 33047 ft | 456 kts | 205° |
| 2026-04-26 14:50 | 37.72884 | -3.86413 | 33048 ft | 457 kts | 205° |
| 2026-04-26 14:51 | 37.67110 | -3.89645 | 33050 ft | 457 kts | 205° |
| 2026-04-26 14:51 | 37.61292 | -3.92897 | 33039 ft | 457 kts | 205° |
| 2026-04-26 14:52 | 37.55478 | -3.96142 | 33043 ft | 457 kts | 205° |
| 2026-04-26 14:52 | 37.49666 | -3.99380 | 33048 ft | 456 kts | 205° |
| 2026-04-26 14:53 | 37.43855 | -4.02609 | 33045 ft | 456 kts | 205° |
| 2026-04-26 14:53 | 37.38048 | -4.05834 | 33045 ft | 456 kts | 205° |
| 2026-04-26 14:54 | 37.32244 | -4.09051 | 33039 ft | 456 kts | 205° |
| 2026-04-26 14:54 | 37.26441 | -4.12260 | 33049 ft | 455 kts | 205° |
| 2026-04-26 14:55 | 37.20642 | -4.15463 | 33058 ft | 455 kts | 205° |
| 2026-04-26 14:55 | 37.14838 | -4.18663 | 33057 ft | 455 kts | 205° |
| 2026-04-26 14:56 | 37.09035 | -4.21857 | 33064 ft | 456 kts | 205° |
| 2026-04-26 14:56 | 37.03233 | -4.25046 | 33069 ft | 456 kts | 205° |
| 2026-04-26 14:57 | 36.97423 | -4.28233 | 33077 ft | 455 kts | 205° |
| 2026-04-26 14:57 | 36.91624 | -4.31410 | 33087 ft | 455 kts | 205° |
| 2026-04-26 14:58 | 36.85811 | -4.34590 | 33090 ft | 455 kts | 205° |
| 2026-04-26 14:58 | 36.80063 | -4.37902 | 33090 ft | 454 kts | 212° |
| 2026-04-26 14:59 | 36.74765 | -4.42082 | 33104 ft | 454 kts | 214° |
| 2026-04-26 14:59 | 36.69485 | -4.46396 | 33103 ft | 454 kts | 214° |
| 2026-04-26 15:00 | 36.64178 | -4.50659 | 33100 ft | 454 kts | 214° |
| 2026-04-26 15:00 | 36.58851 | -4.54881 | 33102 ft | 454 kts | 214° |
| 2026-04-26 15:01 | 36.53509 | -4.59095 | 33066 ft | 455 kts | 214° |
| 2026-04-26 15:01 | 36.48169 | -4.63303 | 33080 ft | 455 kts | 214° |
| 2026-04-26 15:02 | 36.42814 | -4.67516 | 33068 ft | 455 kts | 214° |
| 2026-04-26 15:02 | 36.37460 | -4.71723 | 33067 ft | 456 kts | 214° |
| 2026-04-26 15:03 | 36.32094 | -4.75933 | 33065 ft | 457 kts | 214° |
| 2026-04-26 15:03 | 36.26718 | -4.80144 | 33064 ft | 457 kts | 214° |
| 2026-04-26 15:04 | 36.21338 | -4.84350 | 33053 ft | 457 kts | 214° |
| 2026-04-26 15:04 | 36.15953 | -4.88555 | 33057 ft | 458 kts | 214° |
| 2026-04-26 15:05 | 36.10590 | -4.92777 | 33052 ft | 457 kts | 215° |
| 2026-04-26 15:05 | 36.05240 | -4.97038 | 33042 ft | 457 kts | 215° |
| 2026-04-26 15:06 | 35.99897 | -5.01283 | 33068 ft | 456 kts | 215° |
| 2026-04-26 15:06 | 35.94553 | -5.05514 | 33061 ft | 456 kts | 215° |
| 2026-04-26 15:07 | 35.86537 | -5.11846 | 33085 ft | 456 kts | 215° |
| 2026-04-26 15:07 | 35.81248 | -5.16150 | 33040 ft | 455 kts | 218° |
| 2026-04-26 15:08 | 35.76186 | -5.20802 | 33045 ft | 454 kts | 220° |
| 2026-04-26 15:08 | 35.71202 | -5.25487 | 33044 ft | 454 kts | 220° |
| 2026-04-26 15:09 | 35.66167 | -5.30169 | 33042 ft | 454 kts | 219° |
| 2026-04-26 15:09 | 35.61114 | -5.34817 | 33049 ft | 453 kts | 220° |
| 2026-04-26 15:10 | 35.58579 | -5.37140 | 33234 ft | 454 kts | 219° |
| 2026-04-26 15:10 | 35.56875 | -5.38701 | 33506 ft | 451 kts | 220° |
| 2026-04-26 15:10 | 35.53560 | -5.41733 | 34083 ft | 446 kts | 219° |
| 2026-04-26 15:10 | 35.51083 | -5.43997 | 34394 ft | 444 kts | 220° |
| 2026-04-26 15:11 | 35.48603 | -5.46266 | 34611 ft | 444 kts | 221° |
| 2026-04-26 15:11 | 35.46126 | -5.48529 | 34827 ft | 443 kts | 220° |
| 2026-04-26 15:11 | 35.43662 | -5.50778 | 35024 ft | 440 kts | 220° |
| 2026-04-26 15:11 | 35.41200 | -5.53024 | 34983 ft | 442 kts | 220° |
| 2026-04-26 15:12 | 35.36270 | -5.57514 | 34987 ft | 442 kts | 219° |
| 2026-04-26 15:12 | 35.31341 | -5.61998 | 34964 ft | 441 kts | 219° |
| 2026-04-26 15:13 | 35.26408 | -5.66476 | 34928 ft | 441 kts | 219° |
| 2026-04-26 15:13 | 35.21490 | -5.70935 | 34929 ft | 440 kts | 219° |
| 2026-04-26 15:14 | 35.16568 | -5.75391 | 34925 ft | 440 kts | 219° |
| 2026-04-26 15:14 | 35.11648 | -5.79837 | 34901 ft | 440 kts | 219° |
| 2026-04-26 15:15 | 35.06736 | -5.84271 | 34898 ft | 439 kts | 218° |
| 2026-04-26 15:15 | 35.01825 | -5.88695 | 34898 ft | 439 kts | 218° |
| 2026-04-26 15:16 | 34.96944 | -5.93086 | 34894 ft | 438 kts | 218° |
| 2026-04-26 15:16 | 34.92041 | -5.97491 | 34886 ft | 438 kts | 218° |
| 2026-04-26 15:17 | 34.87937 | -6.01172 | 34885 ft | 437 kts | 218° |
| 2026-04-26 15:17 | 34.82216 | -6.06298 | 34887 ft | 437 kts | 218° |
| 2026-04-26 15:18 | 34.77348 | -6.10651 | 34872 ft | 436 kts | 218° |
| 2026-04-26 15:18 | 34.72460 | -6.15015 | 34883 ft | 436 kts | 218° |
| 2026-04-26 15:19 | 34.67545 | -6.19397 | 34885 ft | 435 kts | 218° |
| 2026-04-26 15:19 | 34.62665 | -6.23741 | 34882 ft | 435 kts | 218° |
| 2026-04-26 15:20 | 34.57814 | -6.28053 | 34883 ft | 435 kts | 218° |
| 2026-04-26 15:20 | 34.53726 | -6.31682 | 34887 ft | 434 kts | 217° |
| 2026-04-26 15:21 | 34.48062 | -6.36702 | 34878 ft | 434 kts | 217° |
| 2026-04-26 15:21 | 34.43985 | -6.40311 | 34881 ft | 433 kts | 217° |
| 2026-04-26 15:22 | 34.39124 | -6.44608 | 34881 ft | 432 kts | 217° |
| 2026-04-26 15:22 | 34.34266 | -6.48896 | 34884 ft | 432 kts | 217° |
| 2026-04-26 15:23 | 34.29450 | -6.53140 | 34869 ft | 431 kts | 217° |
| 2026-04-26 15:23 | 34.24570 | -6.57435 | 34887 ft | 431 kts | 217° |
| 2026-04-26 15:24 | 34.19756 | -6.61665 | 34882 ft | 430 kts | 217° |
| 2026-04-26 15:24 | 34.14914 | -6.65915 | 34881 ft | 431 kts | 217° |
| 2026-04-26 15:25 | 34.10065 | -6.70165 | 34889 ft | 431 kts | 217° |
| 2026-04-26 15:25 | 34.05212 | -6.74412 | 34889 ft | 431 kts | 217° |
| 2026-04-26 15:26 | 34.00289 | -6.78548 | 34882 ft | 432 kts | 214° |
| 2026-04-26 15:26 | 33.95314 | -6.82604 | 34881 ft | 432 kts | 214° |
| 2026-04-26 15:27 | 33.90338 | -6.86666 | 34889 ft | 433 kts | 214° |
| 2026-04-26 15:27 | 33.85356 | -6.90744 | 34897 ft | 434 kts | 214° |
| 2026-04-26 15:28 | 33.80356 | -6.94841 | 34897 ft | 436 kts | 214° |
| 2026-04-26 15:28 | 33.75342 | -6.98945 | 34906 ft | 436 kts | 214° |
| 2026-04-26 15:29 | 33.70318 | -7.03050 | 34913 ft | 437 kts | 214° |
| 2026-04-26 15:30 | 33.60281 | -7.11233 | 34901 ft | 436 kts | 214° |
| 2026-04-26 15:30 | 33.55271 | -7.15309 | 34913 ft | 434 kts | 214° |
| 2026-04-26 15:31 | 33.47782 | -7.21391 | 34907 ft | 433 kts | 213° |
| 2026-04-26 15:32 | 33.41139 | -7.26775 | 34909 ft | 433 kts | 213° |
| 2026-04-26 15:32 | 33.35314 | -7.31488 | 34909 ft | 432 kts | 213° |
| 2026-04-26 15:33 | 33.30330 | -7.35515 | 34899 ft | 432 kts | 213° |
| 2026-04-26 15:33 | 33.25338 | -7.39542 | 34880 ft | 433 kts | 213° |
| 2026-04-26 15:34 | 33.20349 | -7.43562 | 34894 ft | 433 kts | 213° |
| 2026-04-26 15:34 | 33.15356 | -7.47580 | 34895 ft | 433 kts | 213° |
| 2026-04-26 15:35 | 33.10334 | -7.51561 | 34891 ft | 433 kts | 211° |
| 2026-04-26 15:35 | 33.05184 | -7.55199 | 34892 ft | 433 kts | 210° |
| 2026-04-26 15:36 | 32.99964 | -7.58800 | 34892 ft | 433 kts | 210° |
| 2026-04-26 15:36 | 32.94756 | -7.62437 | 34890 ft | 433 kts | 210° |
| 2026-04-26 15:37 | 32.89569 | -7.66078 | 34869 ft | 433 kts | 210° |
| 2026-04-26 15:37 | 32.84376 | -7.69715 | 34878 ft | 433 kts | 210° |
| 2026-04-26 15:38 | 32.79181 | -7.73351 | 34866 ft | 433 kts | 210° |
| 2026-04-26 15:38 | 32.73987 | -7.76983 | 34862 ft | 434 kts | 210° |
| 2026-04-26 15:39 | 32.68789 | -7.80615 | 34862 ft | 434 kts | 210° |
| 2026-04-26 15:39 | 32.64429 | -7.83657 | 34863 ft | 434 kts | 210° |
| 2026-04-26 15:40 | 32.58371 | -7.87878 | 34852 ft | 434 kts | 210° |
| 2026-04-26 15:40 | 32.53161 | -7.91503 | 34861 ft | 434 kts | 211° |
| 2026-04-26 15:41 | 32.47957 | -7.95119 | 34877 ft | 433 kts | 210° |
| 2026-04-26 15:41 | 32.42759 | -7.98726 | 34867 ft | 433 kts | 211° |
| 2026-04-26 15:42 | 32.37562 | -8.02328 | 34853 ft | 433 kts | 210° |
| 2026-04-26 15:42 | 32.32357 | -8.05929 | 34866 ft | 433 kts | 211° |
| 2026-04-26 15:43 | 32.27161 | -8.09520 | 34867 ft | 433 kts | 211° |
| 2026-04-26 15:44 | 32.19363 | -8.14902 | 34868 ft | 433 kts | 211° |
| 2026-04-26 15:44 | 32.11564 | -8.20271 | 34870 ft | 432 kts | 211° |
| 2026-04-26 15:45 | 32.03740 | -8.25533 | 34875 ft | 432 kts | 211° |
| 2026-04-26 15:46 | 31.95938 | -8.30750 | 34865 ft | 431 kts | 211° |
| 2026-04-26 15:46 | 31.91578 | -8.33668 | 34867 ft | 430 kts | 211° |
| 2026-04-26 15:47 | 31.82924 | -8.39455 | 34865 ft | 430 kts | 211° |
| 2026-04-26 15:48 | 31.77720 | -8.42929 | 34861 ft | 430 kts | 211° |
| 2026-04-26 15:48 | 31.72534 | -8.46386 | 34860 ft | 429 kts | 211° |
| 2026-04-26 15:49 | 31.67342 | -8.49844 | 34864 ft | 428 kts | 211° |
| 2026-04-26 15:49 | 31.62165 | -8.53286 | 34861 ft | 427 kts | 211° |
| 2026-04-26 15:50 | 31.57000 | -8.56716 | 34860 ft | 427 kts | 211° |
| 2026-04-26 15:50 | 31.51835 | -8.60142 | 34872 ft | 426 kts | 211° |
| 2026-04-26 15:51 | 31.46674 | -8.63561 | 34867 ft | 425 kts | 211° |
| 2026-04-26 15:51 | 31.41525 | -8.66967 | 34891 ft | 425 kts | 211° |
| 2026-04-26 15:52 | 31.36376 | -8.70370 | 34893 ft | 425 kts | 211° |
| 2026-04-26 15:52 | 31.31225 | -8.73768 | 34906 ft | 425 kts | 211° |
| 2026-04-26 15:53 | 31.26068 | -8.77167 | 34907 ft | 426 kts | 211° |
| 2026-04-26 15:53 | 31.20906 | -8.80564 | 34899 ft | 426 kts | 212° |
| 2026-04-26 15:54 | 31.15780 | -8.83934 | 34909 ft | 426 kts | 212° |
| 2026-04-26 15:54 | 31.10576 | -8.87352 | 34902 ft | 426 kts | 212° |
| 2026-04-26 15:55 | 31.05417 | -8.90734 | 34892 ft | 426 kts | 212° |
| 2026-04-26 15:55 | 31.00242 | -8.94123 | 34891 ft | 426 kts | 212° |
| 2026-04-26 15:56 | 30.95075 | -8.97503 | 34880 ft | 426 kts | 212° |
| 2026-04-26 15:56 | 30.89943 | -9.00855 | 34886 ft | 425 kts | 212° |
| 2026-04-26 15:57 | 30.84757 | -9.04239 | 34866 ft | 424 kts | 212° |
| 2026-04-26 15:57 | 30.79659 | -9.07560 | 34849 ft | 422 kts | 212° |
| 2026-04-26 15:58 | 30.74550 | -9.10886 | 34844 ft | 420 kts | 212° |
| 2026-04-26 15:58 | 30.69463 | -9.14193 | 34840 ft | 418 kts | 212° |
| 2026-04-26 15:59 | 30.64389 | -9.17488 | 34831 ft | 417 kts | 212° |
| 2026-04-26 15:59 | 30.59332 | -9.20767 | 34822 ft | 416 kts | 212° |
| 2026-04-26 16:00 | 30.54285 | -9.24036 | 34833 ft | 415 kts | 212° |
| 2026-04-26 16:00 | 30.49251 | -9.27293 | 34837 ft | 413 kts | 212° |
| 2026-04-26 16:01 | 30.44235 | -9.30535 | 34831 ft | 412 kts | 212° |
| 2026-04-26 16:01 | 30.39223 | -9.33772 | 34849 ft | 413 kts | 212° |
| 2026-04-26 16:02 | 30.34213 | -9.37015 | 34842 ft | 413 kts | 214° |
| 2026-04-26 16:02 | 30.29806 | -9.41180 | 34832 ft | 408 kts | 229° |
| 2026-04-26 16:03 | 30.25994 | -9.46052 | 34828 ft | 410 kts | 229° |
| 2026-04-26 16:03 | 30.22147 | -9.50931 | 34853 ft | 411 kts | 229° |
| 2026-04-26 16:04 | 30.18263 | -9.55817 | 34844 ft | 413 kts | 229° |
| 2026-04-26 16:04 | 30.14366 | -9.60702 | 34861 ft | 414 kts | 229° |
| 2026-04-26 16:05 | 30.10460 | -9.65595 | 34862 ft | 415 kts | 229° |
| 2026-04-26 16:05 | 30.06541 | -9.70498 | 34844 ft | 415 kts | 229° |
| 2026-04-26 16:06 | 30.02634 | -9.75395 | 34839 ft | 414 kts | 229° |
| 2026-04-26 16:06 | 29.98817 | -9.80307 | 34854 ft | 413 kts | 230° |
| 2026-04-26 16:07 | 29.94997 | -9.85241 | 34871 ft | 412 kts | 229° |
| 2026-04-26 16:07 | 29.91178 | -9.90151 | 34867 ft | 411 kts | 229° |
| 2026-04-26 16:08 | 29.87367 | -9.95040 | 34868 ft | 410 kts | 229° |
| 2026-04-26 16:08 | 29.84176 | -9.99129 | 34877 ft | 409 kts | 229° |
| 2026-04-26 16:09 | 29.80362 | -10.03987 | 34879 ft | 409 kts | 229° |
| 2026-04-26 16:09 | 29.76485 | -10.08774 | 34872 ft | 408 kts | 228° |
| 2026-04-26 16:10 | 29.72600 | -10.13536 | 34887 ft | 409 kts | 228° |
| 2026-04-26 16:10 | 29.68715 | -10.18305 | 34871 ft | 408 kts | 228° |
| 2026-04-26 16:11 | 29.64830 | -10.23078 | 34889 ft | 409 kts | 228° |
| 2026-04-26 16:11 | 29.60943 | -10.27853 | 34885 ft | 409 kts | 228° |
| 2026-04-26 16:12 | 29.57046 | -10.32635 | 34883 ft | 410 kts | 228° |
| 2026-04-26 16:12 | 29.51209 | -10.39786 | 34883 ft | 411 kts | 228° |
| 2026-04-26 16:13 | 29.47294 | -10.44575 | 34886 ft | 412 kts | 228° |
| 2026-04-26 16:13 | 29.43366 | -10.49373 | 34886 ft | 412 kts | 228° |
| 2026-04-26 16:14 | 29.39438 | -10.54167 | 34874 ft | 412 kts | 228° |
| 2026-04-26 16:15 | 29.33549 | -10.61341 | 34892 ft | 412 kts | 227° |
| 2026-04-26 16:15 | 29.29623 | -10.66118 | 34895 ft | 411 kts | 227° |
| 2026-04-26 16:16 | 29.23740 | -10.73263 | 34886 ft | 411 kts | 227° |
| 2026-04-26 16:16 | 29.19822 | -10.78017 | 34891 ft | 410 kts | 227° |
| 2026-04-26 16:17 | 29.15905 | -10.82762 | 34894 ft | 410 kts | 227° |
| 2026-04-26 16:17 | 29.11989 | -10.87500 | 34899 ft | 410 kts | 227° |
| 2026-04-26 16:18 | 29.06111 | -10.94602 | 34898 ft | 409 kts | 227° |
| 2026-04-26 16:19 | 29.00239 | -11.01685 | 34900 ft | 410 kts | 227° |
| 2026-04-26 16:20 | 28.94372 | -11.08748 | 34903 ft | 410 kts | 227° |
| 2026-04-26 16:20 | 28.88442 | -11.15875 | 34896 ft | 411 kts | 227° |
| 2026-04-26 16:21 | 28.84526 | -11.20575 | 34898 ft | 412 kts | 227° |
| 2026-04-26 16:21 | 28.80543 | -11.25349 | 34900 ft | 412 kts | 227° |
| 2026-04-26 16:22 | 28.76614 | -11.30053 | 34881 ft | 413 kts | 227° |
| 2026-04-26 16:22 | 28.72654 | -11.34789 | 34888 ft | 413 kts | 227° |
| 2026-04-26 16:23 | 28.68690 | -11.39523 | 34896 ft | 413 kts | 227° |
| 2026-04-26 16:23 | 28.64731 | -11.44247 | 34896 ft | 413 kts | 227° |
| 2026-04-26 16:24 | 28.60761 | -11.48978 | 34895 ft | 413 kts | 227° |
| 2026-04-26 16:24 | 28.56793 | -11.53700 | 34894 ft | 413 kts | 227° |
| 2026-04-26 16:25 | 28.52821 | -11.58422 | 34894 ft | 413 kts | 227° |
| 2026-04-26 16:25 | 28.48852 | -11.63137 | 34900 ft | 413 kts | 227° |
| 2026-04-26 16:26 | 28.45550 | -11.67054 | 34900 ft | 413 kts | 227° |
| 2026-04-26 16:26 | 28.40906 | -11.72556 | 34893 ft | 412 kts | 227° |
| 2026-04-26 16:27 | 28.36937 | -11.77253 | 34905 ft | 412 kts | 227° |
| 2026-04-26 16:27 | 28.33005 | -11.81900 | 34907 ft | 411 kts | 227° |
| 2026-04-26 16:28 | 28.29043 | -11.86578 | 34907 ft | 411 kts | 227° |
| 2026-04-26 16:28 | 28.25087 | -11.91244 | 34918 ft | 410 kts | 227° |
| 2026-04-26 16:29 | 28.21127 | -11.95908 | 34918 ft | 410 kts | 227° |
| 2026-04-26 16:29 | 28.17171 | -12.00563 | 34918 ft | 410 kts | 227° |
| 2026-04-26 16:30 | 28.13217 | -12.05210 | 34934 ft | 410 kts | 227° |
| 2026-04-26 16:30 | 28.09252 | -12.09865 | 34926 ft | 410 kts | 227° |
| 2026-04-26 16:31 | 28.05290 | -12.14512 | 34928 ft | 411 kts | 227° |
| 2026-04-26 16:31 | 28.01317 | -12.19166 | 34932 ft | 411 kts | 227° |
| 2026-04-26 16:32 | 27.98004 | -12.23042 | 34934 ft | 412 kts | 227° |
| 2026-04-26 16:32 | 27.93339 | -12.28494 | 34933 ft | 413 kts | 227° |
| 2026-04-26 16:33 | 27.89342 | -12.33161 | 34932 ft | 413 kts | 227° |
| 2026-04-26 16:33 | 27.85346 | -12.37821 | 34934 ft | 413 kts | 227° |
| 2026-04-26 16:34 | 27.81339 | -12.42488 | 34943 ft | 413 kts | 227° |
| 2026-04-26 16:34 | 27.77336 | -12.47146 | 34936 ft | 413 kts | 227° |
| 2026-04-26 16:35 | 27.73332 | -12.51800 | 34939 ft | 413 kts | 227° |
| 2026-04-26 16:35 | 27.69335 | -12.56442 | 34938 ft | 412 kts | 227° |
| 2026-04-26 16:36 | 27.65345 | -12.61085 | 34941 ft | 412 kts | 227° |
| 2026-04-26 16:36 | 27.61407 | -12.65793 | 34943 ft | 412 kts | 227° |
| 2026-04-26 16:37 | 27.57513 | -12.70468 | 34945 ft | 412 kts | 227° |
| 2026-04-26 16:37 | 27.53587 | -12.75165 | 34943 ft | 412 kts | 227° |
| 2026-04-26 16:38 | 27.49650 | -12.79864 | 34954 ft | 412 kts | 227° |
| 2026-04-26 16:38 | 27.45709 | -12.84560 | 34948 ft | 413 kts | 227° |
| 2026-04-26 16:39 | 27.41760 | -12.89259 | 34949 ft | 413 kts | 227° |
| 2026-04-26 16:39 | 27.37816 | -12.93947 | 34952 ft | 413 kts | 227° |
| 2026-04-26 16:40 | 27.33864 | -12.98640 | 34951 ft | 413 kts | 227° |
| 2026-04-26 16:40 | 27.29915 | -13.03323 | 34952 ft | 413 kts | 227° |
| 2026-04-26 16:41 | 27.25963 | -13.08006 | 34959 ft | 412 kts | 227° |
| 2026-04-26 16:41 | 27.22014 | -13.12681 | 34966 ft | 412 kts | 227° |
| 2026-04-26 16:42 | 27.18064 | -13.17352 | 34968 ft | 412 kts | 227° |
| 2026-04-26 16:42 | 27.14097 | -13.21942 | 34964 ft | 413 kts | 223° |
| 2026-04-26 16:43 | 27.09474 | -13.25832 | 34965 ft | 413 kts | 217° |
| 2026-04-26 16:43 | 27.04796 | -13.29602 | 34965 ft | 413 kts | 217° |
| 2026-04-26 16:44 | 27.00169 | -13.33354 | 34963 ft | 413 kts | 217° |
| 2026-04-26 16:44 | 26.95487 | -13.37167 | 34974 ft | 413 kts | 217° |
| 2026-04-26 16:45 | 26.90865 | -13.40935 | 34969 ft | 413 kts | 217° |
| 2026-04-26 16:45 | 26.86211 | -13.44725 | 34967 ft | 414 kts | 217° |
| 2026-04-26 16:46 | 26.81554 | -13.48513 | 34948 ft | 414 kts | 218° |
| 2026-04-26 16:46 | 26.76902 | -13.52294 | 34970 ft | 414 kts | 218° |
| 2026-04-26 16:47 | 26.72242 | -13.56077 | 34966 ft | 414 kts | 218° |
| 2026-04-26 16:47 | 26.67584 | -13.59855 | 34967 ft | 413 kts | 218° |
| 2026-04-26 16:48 | 26.62928 | -13.63626 | 34964 ft | 413 kts | 218° |
| 2026-04-26 16:48 | 26.58276 | -13.67391 | 34964 ft | 413 kts | 218° |
| 2026-04-26 16:49 | 26.53621 | -13.71155 | 34970 ft | 413 kts | 218° |
| 2026-04-26 16:49 | 26.48971 | -13.74910 | 34948 ft | 412 kts | 218° |
| 2026-04-26 16:50 | 26.44330 | -13.78655 | 34966 ft | 412 kts | 218° |
| 2026-04-26 16:50 | 26.39692 | -13.82393 | 34970 ft | 411 kts | 218° |
| 2026-04-26 16:51 | 26.35091 | -13.86097 | 34979 ft | 411 kts | 218° |
| 2026-04-26 16:51 | 26.30451 | -13.89830 | 34967 ft | 411 kts | 218° |
| 2026-04-26 16:52 | 26.27354 | -13.92319 | 34965 ft | 411 kts | 218° |
| 2026-04-26 16:52 | 26.21175 | -13.97280 | 34966 ft | 411 kts | 218° |
| 2026-04-26 16:53 | 26.16545 | -14.00993 | 34949 ft | 411 kts | 218° |
| 2026-04-26 16:53 | 26.11905 | -14.04711 | 34963 ft | 410 kts | 218° |
| 2026-04-26 16:54 | 26.07272 | -14.08419 | 34967 ft | 410 kts | 218° |
| 2026-04-26 16:54 | 26.02640 | -14.12123 | 34969 ft | 410 kts | 218° |
| 2026-04-26 16:55 | 25.98000 | -14.15829 | 34964 ft | 411 kts | 218° |
| 2026-04-26 16:55 | 25.93363 | -14.19530 | 34961 ft | 411 kts | 218° |
| 2026-04-26 16:56 | 25.86401 | -14.25079 | 34967 ft | 411 kts | 218° |
| 2026-04-26 16:57 | 25.82548 | -14.28147 | 34958 ft | 410 kts | 219° |
| 2026-04-26 16:57 | 25.75588 | -14.33683 | 34968 ft | 410 kts | 218° |
| 2026-04-26 16:58 | 25.71705 | -14.36771 | 34972 ft | 410 kts | 219° |
| 2026-04-26 16:59 | 25.64020 | -14.42952 | 34964 ft | 410 kts | 219° |
| 2026-04-26 17:00 | 25.54777 | -14.50384 | 34977 ft | 410 kts | 219° |
| 2026-04-26 17:00 | 25.47851 | -14.55938 | 34968 ft | 410 kts | 219° |
| 2026-04-26 17:01 | 25.43227 | -14.59641 | 34977 ft | 410 kts | 219° |
| 2026-04-26 17:01 | 25.38603 | -14.63342 | 34969 ft | 410 kts | 219° |
| 2026-04-26 17:02 | 25.33974 | -14.67043 | 34977 ft | 411 kts | 219° |
| 2026-04-26 17:02 | 25.29377 | -14.70715 | 34976 ft | 411 kts | 219° |
| 2026-04-26 17:03 | 25.24740 | -14.74415 | 34978 ft | 411 kts | 219° |
| 2026-04-26 17:03 | 25.20095 | -14.78117 | 34976 ft | 412 kts | 219° |
| 2026-04-26 17:04 | 25.15453 | -14.81814 | 34971 ft | 412 kts | 219° |
| 2026-04-26 17:04 | 25.10801 | -14.85517 | 34986 ft | 412 kts | 219° |
| 2026-04-26 17:05 | 25.06145 | -14.89218 | 34984 ft | 413 kts | 219° |
| 2026-04-26 17:05 | 25.01489 | -14.92917 | 34981 ft | 413 kts | 219° |
| 2026-04-26 17:06 | 24.96816 | -14.96616 | 34989 ft | 413 kts | 220° |
| 2026-04-26 17:06 | 24.92139 | -15.00302 | 34984 ft | 414 kts | 219° |
| 2026-04-26 17:07 | 24.87455 | -15.03990 | 34986 ft | 413 kts | 219° |
| 2026-04-26 17:07 | 24.82782 | -15.07669 | 34977 ft | 413 kts | 220° |
| 2026-04-26 17:08 | 24.78106 | -15.11348 | 34988 ft | 413 kts | 220° |
| 2026-04-26 17:08 | 24.73432 | -15.15022 | 34986 ft | 413 kts | 220° |
| 2026-04-26 17:09 | 24.69544 | -15.18076 | 34983 ft | 413 kts | 220° |
| 2026-04-26 17:09 | 24.64066 | -15.22374 | 34990 ft | 414 kts | 220° |
| 2026-04-26 17:10 | 24.59410 | -15.26024 | 34991 ft | 414 kts | 220° |
| 2026-04-26 17:10 | 24.54717 | -15.29699 | 34989 ft | 414 kts | 220° |
| 2026-04-26 17:11 | 24.50023 | -15.33371 | 34981 ft | 414 kts | 220° |
| 2026-04-26 17:11 | 24.45331 | -15.37038 | 34991 ft | 414 kts | 220° |
| 2026-04-26 17:12 | 24.38277 | -15.42546 | 34992 ft | 415 kts | 220° |
| 2026-04-26 17:13 | 24.31217 | -15.48050 | 34988 ft | 416 kts | 220° |
| 2026-04-26 17:14 | 24.24137 | -15.53563 | 34987 ft | 416 kts | 220° |
| 2026-04-26 17:14 | 24.17055 | -15.59068 | 34978 ft | 416 kts | 220° |
| 2026-04-26 17:15 | 24.09977 | -15.64564 | 34992 ft | 416 kts | 220° |
| 2026-04-26 17:16 | 24.05257 | -15.68224 | 34994 ft | 416 kts | 220° |
| 2026-04-26 17:16 | 24.00533 | -15.71885 | 34991 ft | 416 kts | 220° |
| 2026-04-26 17:17 | 23.95799 | -15.75549 | 34989 ft | 416 kts | 220° |
| 2026-04-26 17:17 | 23.91071 | -15.79206 | 34994 ft | 417 kts | 220° |
| 2026-04-26 17:18 | 23.86337 | -15.82865 | 34993 ft | 417 kts | 220° |
| 2026-04-26 17:18 | 23.81602 | -15.86521 | 34993 ft | 417 kts | 220° |
| 2026-04-26 17:19 | 23.74418 | -15.91890 | 34988 ft | 421 kts | 213° |
| 2026-04-26 17:19 | 23.68943 | -15.94316 | 34994 ft | 427 kts | 205° |
| 2026-04-26 17:20 | 23.64296 | -15.96127 | 34987 ft | 427 kts | 205° |
| 2026-04-26 17:20 | 23.57767 | -15.98691 | 34988 ft | 426 kts | 206° |
| 2026-04-26 17:21 | 23.52198 | -16.00902 | 34972 ft | 426 kts | 206° |
| 2026-04-26 17:21 | 23.46641 | -16.03116 | 34978 ft | 425 kts | 206° |
| 2026-04-26 17:22 | 23.41119 | -16.05316 | 34981 ft | 426 kts | 206° |
| 2026-04-26 17:22 | 23.35557 | -16.07530 | 34983 ft | 426 kts | 206° |
| 2026-04-26 17:23 | 23.29982 | -16.09746 | 34984 ft | 426 kts | 206° |
| 2026-04-26 17:23 | 23.24406 | -16.11960 | 34984 ft | 427 kts | 206° |
| 2026-04-26 17:24 | 23.18825 | -16.14174 | 34978 ft | 426 kts | 206° |
| 2026-04-26 17:24 | 23.13251 | -16.16383 | 34978 ft | 427 kts | 206° |
| 2026-04-26 17:25 | 23.07676 | -16.18592 | 34975 ft | 427 kts | 206° |
| 2026-04-26 17:25 | 23.02089 | -16.20802 | 34979 ft | 427 kts | 206° |
| 2026-04-26 17:26 | 22.96505 | -16.23010 | 34978 ft | 427 kts | 206° |
| 2026-04-26 17:26 | 22.90922 | -16.25215 | 34983 ft | 427 kts | 206° |
| 2026-04-26 17:27 | 22.85346 | -16.27415 | 34967 ft | 426 kts | 207° |
| 2026-04-26 17:27 | 22.79764 | -16.29616 | 34975 ft | 426 kts | 207° |
| 2026-04-26 17:28 | 22.74195 | -16.31811 | 34972 ft | 426 kts | 207° |
| 2026-04-26 17:28 | 22.68621 | -16.34005 | 34974 ft | 426 kts | 207° |
| 2026-04-26 17:29 | 22.63998 | -16.35823 | 34973 ft | 426 kts | 207° |
| 2026-04-26 17:29 | 22.57488 | -16.38381 | 34974 ft | 425 kts | 207° |
| 2026-04-26 17:30 | 22.51972 | -16.40546 | 34962 ft | 424 kts | 208° |
| 2026-04-26 17:30 | 22.46421 | -16.42724 | 34969 ft | 424 kts | 208° |
| 2026-04-26 17:31 | 22.40876 | -16.44898 | 34973 ft | 424 kts | 208° |
| 2026-04-26 17:31 | 22.35323 | -16.47073 | 34965 ft | 425 kts | 208° |
| 2026-04-26 17:32 | 22.29721 | -16.49265 | 34971 ft | 425 kts | 208° |
| 2026-04-26 17:32 | 22.24199 | -16.51424 | 34934 ft | 425 kts | 208° |
| 2026-04-26 17:33 | 22.18641 | -16.53594 | 34958 ft | 425 kts | 208° |
| 2026-04-26 17:34 | 22.10308 | -16.56847 | 34954 ft | 425 kts | 208° |
| 2026-04-26 17:34 | 22.04745 | -16.59015 | 34964 ft | 425 kts | 208° |
| 2026-04-26 17:35 | 21.99191 | -16.61178 | 34964 ft | 425 kts | 208° |
| 2026-04-26 17:35 | 21.93623 | -16.63346 | 34957 ft | 425 kts | 208° |
| 2026-04-26 17:36 | 21.88067 | -16.65506 | 34957 ft | 424 kts | 209° |
| 2026-04-26 17:36 | 21.82528 | -16.67673 | 34959 ft | 423 kts | 210° |
| 2026-04-26 17:37 | 21.77018 | -16.69888 | 34963 ft | 423 kts | 210° |
| 2026-04-26 17:37 | 21.71506 | -16.72111 | 34952 ft | 423 kts | 210° |
| 2026-04-26 17:38 | 21.63228 | -16.75433 | 34960 ft | 424 kts | 210° |
| 2026-04-26 17:38 | 21.57702 | -16.77646 | 34926 ft | 424 kts | 211° |
| 2026-04-26 17:39 | 21.52180 | -16.79855 | 34956 ft | 424 kts | 211° |
| 2026-04-26 17:39 | 21.46657 | -16.82064 | 34965 ft | 424 kts | 211° |
| 2026-04-26 17:40 | 21.42992 | -16.83529 | 34962 ft | 424 kts | 211° |
| 2026-04-26 17:40 | 21.35587 | -16.86486 | 34962 ft | 425 kts | 211° |
| 2026-04-26 17:41 | 21.30036 | -16.88677 | 34960 ft | 426 kts | 210° |
| 2026-04-26 17:41 | 21.24457 | -16.90815 | 34926 ft | 426 kts | 210° |
| 2026-04-26 17:42 | 21.18928 | -16.92931 | 34957 ft | 425 kts | 210° |
| 2026-04-26 17:42 | 21.13370 | -16.95066 | 34971 ft | 424 kts | 210° |
| 2026-04-26 17:43 | 21.07813 | -16.97201 | 34949 ft | 424 kts | 210° |
| 2026-04-26 17:43 | 21.02256 | -16.99336 | 34942 ft | 424 kts | 210° |
| 2026-04-26 17:44 | 20.96697 | -17.01468 | 34942 ft | 424 kts | 210° |
| 2026-04-26 17:44 | 20.91064 | -17.03429 | 34899 ft | 434 kts | 202° |
| 2026-04-26 17:45 | 20.85997 | -17.04020 | 34939 ft | 444 kts | 194° |
| 2026-04-26 17:45 | 20.79809 | -17.04420 | 34942 ft | 445 kts | 194° |
| 2026-04-26 17:46 | 20.73631 | -17.04829 | 34948 ft | 445 kts | 194° |
| 2026-04-26 17:46 | 20.67448 | -17.05269 | 34954 ft | 445 kts | 194° |
| 2026-04-26 17:47 | 20.62272 | -17.05650 | 34958 ft | 446 kts | 194° |
| 2026-04-26 17:47 | 20.55066 | -17.06184 | 34967 ft | 447 kts | 194° |
| 2026-04-26 17:48 | 20.48843 | -17.06644 | 34958 ft | 449 kts | 194° |
| 2026-04-26 17:48 | 20.42607 | -17.07103 | 34958 ft | 450 kts | 194° |
| 2026-04-26 17:49 | 20.36360 | -17.07563 | 34954 ft | 450 kts | 194° |
| 2026-04-26 17:49 | 20.30099 | -17.08023 | 34954 ft | 451 kts | 194° |
| 2026-04-26 17:50 | 20.23846 | -17.08481 | 34947 ft | 450 kts | 194° |
| 2026-04-26 17:50 | 20.17583 | -17.08942 | 35173 ft | 452 kts | 194° |
| 2026-04-26 17:51 | 20.14454 | -17.09170 | 35506 ft | 449 kts | 194° |
| 2026-04-26 17:51 | 20.11346 | -17.09395 | 35862 ft | 446 kts | 194° |
| 2026-04-26 17:51 | 20.05124 | -17.09854 | 35948 ft | 450 kts | 194° |
| 2026-04-26 17:52 | 19.98894 | -17.10309 | 35920 ft | 445 kts | 194° |
| 2026-04-26 17:52 | 19.92759 | -17.10753 | 35919 ft | 440 kts | 194° |
| 2026-04-26 17:53 | 19.86651 | -17.11201 | 35928 ft | 439 kts | 194° |
| 2026-04-26 17:54 | 19.77551 | -17.11869 | 35938 ft | 439 kts | 194° |
| 2026-04-26 17:54 | 19.71458 | -17.12316 | 35939 ft | 440 kts | 194° |
| 2026-04-26 17:55 | 19.65346 | -17.12762 | 35939 ft | 441 kts | 194° |
| 2026-04-26 17:55 | 19.59222 | -17.13208 | 35931 ft | 441 kts | 194° |
| 2026-04-26 17:56 | 19.53094 | -17.13654 | 35933 ft | 442 kts | 194° |
| 2026-04-26 17:57 | 19.40800 | -17.14549 | 35936 ft | 444 kts | 194° |
| 2026-04-26 17:57 | 19.34633 | -17.14996 | 35937 ft | 444 kts | 194° |
| 2026-04-26 17:58 | 19.22309 | -17.15889 | 35925 ft | 443 kts | 194° |
| 2026-04-26 17:59 | 19.13082 | -17.16558 | 35934 ft | 443 kts | 194° |
| 2026-04-26 17:59 | 19.06942 | -17.17002 | 35935 ft | 442 kts | 194° |
| 2026-04-26 18:00 | 19.00806 | -17.17446 | 35935 ft | 442 kts | 194° |
| 2026-04-26 18:00 | 18.94718 | -17.17886 | 35920 ft | 441 kts | 195° |
| 2026-04-26 18:01 | 18.88597 | -17.18328 | 35927 ft | 440 kts | 195° |
| 2026-04-26 18:01 | 18.82488 | -17.18770 | 35933 ft | 440 kts | 195° |
| 2026-04-26 18:02 | 18.77363 | -17.19140 | 35940 ft | 440 kts | 195° |
| 2026-04-26 18:02 | 18.70257 | -17.19652 | 35937 ft | 441 kts | 195° |
| 2026-04-26 18:03 | 18.64132 | -17.20094 | 35901 ft | 441 kts | 194° |
| 2026-04-26 18:03 | 18.58013 | -17.20534 | 35926 ft | 441 kts | 194° |
| 2026-04-26 18:04 | 18.51889 | -17.20975 | 35937 ft | 441 kts | 194° |
| 2026-04-26 18:05 | 18.42694 | -17.21636 | 35931 ft | 442 kts | 194° |
| 2026-04-26 18:05 | 18.36554 | -17.22075 | 35938 ft | 443 kts | 194° |
| 2026-04-26 18:06 | 18.30396 | -17.22514 | 35903 ft | 443 kts | 194° |
| 2026-04-26 18:06 | 18.24248 | -17.22951 | 35927 ft | 443 kts | 194° |
| 2026-04-26 18:07 | 18.18087 | -17.23389 | 35935 ft | 444 kts | 194° |
| 2026-04-26 18:07 | 18.11961 | -17.23825 | 35931 ft | 444 kts | 194° |
| 2026-04-26 18:08 | 18.05790 | -17.24264 | 35933 ft | 444 kts | 194° |
| 2026-04-26 18:08 | 17.99613 | -17.24703 | 35934 ft | 445 kts | 194° |
| 2026-04-26 18:09 | 17.93444 | -17.25140 | 35925 ft | 444 kts | 193° |
| 2026-04-26 18:09 | 17.87278 | -17.25578 | 35929 ft | 444 kts | 193° |
| 2026-04-26 18:10 | 17.81146 | -17.26013 | 35935 ft | 445 kts | 193° |
| 2026-04-26 18:10 | 17.74968 | -17.26451 | 35929 ft | 445 kts | 193° |
| 2026-04-26 18:11 | 17.68788 | -17.26888 | 35932 ft | 446 kts | 193° |
| 2026-04-26 18:11 | 17.62599 | -17.27326 | 35914 ft | 446 kts | 193° |
| 2026-04-26 18:12 | 17.56410 | -17.27764 | 35924 ft | 446 kts | 193° |
| 2026-04-26 18:12 | 17.50222 | -17.28201 | 35930 ft | 446 kts | 193° |
| 2026-04-26 18:13 | 17.44027 | -17.28638 | 35931 ft | 446 kts | 193° |
| 2026-04-26 18:13 | 17.37823 | -17.29076 | 35932 ft | 447 kts | 193° |
| 2026-04-26 18:14 | 17.31620 | -17.29514 | 35927 ft | 447 kts | 193° |
| 2026-04-26 18:14 | 17.25413 | -17.29951 | 35929 ft | 447 kts | 193° |
| 2026-04-26 18:15 | 17.19207 | -17.30388 | 35931 ft | 447 kts | 193° |
| 2026-04-26 18:15 | 17.13005 | -17.30824 | 35931 ft | 447 kts | 193° |
| 2026-04-26 18:16 | 17.06796 | -17.31261 | 35931 ft | 447 kts | 193° |
| 2026-04-26 18:16 | 16.97496 | -17.31914 | 35908 ft | 446 kts | 192° |
| 2026-04-26 18:17 | 16.91296 | -17.32349 | 35923 ft | 446 kts | 192° |
| 2026-04-26 18:17 | 16.85150 | -17.32781 | 35932 ft | 446 kts | 192° |
| 2026-04-26 18:18 | 16.78919 | -17.33218 | 35937 ft | 446 kts | 192° |
| 2026-04-26 18:18 | 16.72661 | -17.32962 | 35931 ft | 469 kts | 171° |
| 2026-04-26 18:19 | 16.66443 | -17.30867 | 35936 ft | 471 kts | 170° |
| 2026-04-26 18:19 | 16.60251 | -17.28793 | 35923 ft | 470 kts | 170° |
| 2026-04-26 18:20 | 16.54017 | -17.26759 | 35932 ft | 470 kts | 170° |
| 2026-04-26 18:20 | 16.49834 | -17.25410 | 35934 ft | 470 kts | 170° |
| 2026-04-26 18:21 | 16.44655 | -17.23745 | 35815 ft | 468 kts | 170° |
| 2026-04-26 18:21 | 16.41546 | -17.22744 | 35468 ft | 464 kts | 170° |
| 2026-04-26 18:21 | 16.38485 | -17.21756 | 35101 ft | 459 kts | 170° |
| 2026-04-26 18:21 | 16.35445 | -17.20777 | 34737 ft | 456 kts | 170° |
| 2026-04-26 18:22 | 16.32431 | -17.19807 | 34344 ft | 453 kts | 170° |
| 2026-04-26 18:22 | 16.29424 | -17.18841 | 33947 ft | 450 kts | 170° |
| 2026-04-26 18:22 | 16.26436 | -17.17881 | 33500 ft | 449 kts | 170° |
| 2026-04-26 18:22 | 16.23460 | -17.16926 | 33098 ft | 446 kts | 170° |
| 2026-04-26 18:23 | 16.20510 | -17.15979 | 32702 ft | 443 kts | 170° |
| 2026-04-26 18:23 | 16.17575 | -17.15037 | 32312 ft | 441 kts | 170° |
| 2026-04-26 18:23 | 16.14652 | -17.14098 | 31933 ft | 438 kts | 170° |
| 2026-04-26 18:23 | 16.11743 | -17.13165 | 31552 ft | 436 kts | 170° |
| 2026-04-26 18:24 | 16.08849 | -17.12237 | 31162 ft | 435 kts | 170° |
| 2026-04-26 18:24 | 16.05965 | -17.11313 | 30780 ft | 433 kts | 169° |
| 2026-04-26 18:24 | 16.03084 | -17.10390 | 30391 ft | 432 kts | 169° |
| 2026-04-26 18:24 | 16.00217 | -17.09471 | 30009 ft | 431 kts | 169° |
| 2026-04-26 18:25 | 15.97355 | -17.08555 | 29562 ft | 429 kts | 169° |
| 2026-04-26 18:25 | 15.94515 | -17.07644 | 29173 ft | 426 kts | 169° |
| 2026-04-26 18:25 | 15.91695 | -17.06740 | 28777 ft | 423 kts | 169° |
| 2026-04-26 18:25 | 15.88893 | -17.05843 | 28391 ft | 420 kts | 168° |
| 2026-04-26 18:26 | 15.86116 | -17.04953 | 28014 ft | 416 kts | 168° |
| 2026-04-26 18:26 | 15.83357 | -17.04070 | 27628 ft | 413 kts | 168° |
| 2026-04-26 18:26 | 15.80624 | -17.03196 | 27342 ft | 408 kts | 168° |
| 2026-04-26 18:26 | 15.77932 | -17.02333 | 27094 ft | 402 kts | 168° |
| 2026-04-26 18:27 | 15.75280 | -17.01485 | 26837 ft | 396 kts | 169° |
| 2026-04-26 18:27 | 15.72659 | -17.00647 | 26511 ft | 393 kts | 169° |
| 2026-04-26 18:27 | 15.70050 | -16.99815 | 26163 ft | 391 kts | 168° |
| 2026-04-26 18:27 | 15.67457 | -16.98988 | 25803 ft | 389 kts | 168° |
| 2026-04-26 18:28 | 15.64878 | -16.98165 | 25436 ft | 387 kts | 168° |
| 2026-04-26 18:28 | 15.62313 | -16.97347 | 25079 ft | 385 kts | 168° |
| 2026-04-26 18:28 | 15.59757 | -16.96532 | 24704 ft | 384 kts | 168° |
| 2026-04-26 18:28 | 15.57208 | -16.95719 | 24338 ft | 382 kts | 168° |
| 2026-04-26 18:29 | 15.54703 | -16.94920 | 23978 ft | 381 kts | 168° |
| 2026-04-26 18:29 | 15.52172 | -16.94113 | 23604 ft | 380 kts | 168° |
| 2026-04-26 18:29 | 15.49617 | -16.93298 | 23188 ft | 378 kts | 168° |
| 2026-04-26 18:29 | 15.47142 | -16.92509 | 22804 ft | 376 kts | 168° |
| 2026-04-26 18:30 | 15.44653 | -16.91715 | 22424 ft | 373 kts | 168° |
| 2026-04-26 18:30 | 15.42143 | -16.90915 | 22051 ft | 371 kts | 167° |
| 2026-04-26 18:30 | 15.39686 | -16.90132 | 21679 ft | 368 kts | 167° |
| 2026-04-26 18:30 | 15.37275 | -16.89365 | 21318 ft | 366 kts | 167° |
| 2026-04-26 18:31 | 15.34848 | -16.88592 | 20963 ft | 364 kts | 167° |
| 2026-04-26 18:31 | 15.32428 | -16.87843 | 20591 ft | 361 kts | 171° |
| 2026-04-26 18:31 | 15.29976 | -16.87693 | 20197 ft | 350 kts | 192° |
| 2026-04-26 18:31 | 15.27598 | -16.88181 | 19803 ft | 347 kts | 197° |
| 2026-04-26 18:32 | 15.25255 | -16.88771 | 19429 ft | 346 kts | 198° |
| 2026-04-26 18:32 | 15.22921 | -16.89378 | 19066 ft | 346 kts | 198° |
| 2026-04-26 18:32 | 15.20590 | -16.89978 | 18706 ft | 345 kts | 198° |
| 2026-04-26 18:32 | 15.18258 | -16.90570 | 18351 ft | 345 kts | 198° |
| 2026-04-26 18:33 | 15.15926 | -16.91153 | 17957 ft | 345 kts | 197° |
| 2026-04-26 18:33 | 15.13599 | -16.91729 | 17592 ft | 343 kts | 197° |
| 2026-04-26 18:33 | 15.12036 | -16.92114 | 17348 ft | 341 kts | 197° |
| 2026-04-26 18:33 | 15.09732 | -16.92679 | 16997 ft | 339 kts | 197° |
| 2026-04-26 18:34 | 15.07449 | -16.93238 | 16652 ft | 336 kts | 197° |
| 2026-04-26 18:34 | 15.05178 | -16.93794 | 16309 ft | 334 kts | 197° |
| 2026-04-26 18:34 | 15.02926 | -16.94345 | 15970 ft | 332 kts | 196° |
| 2026-04-26 18:34 | 15.00718 | -16.94885 | 15640 ft | 329 kts | 196° |
| 2026-04-26 18:35 | 14.98495 | -16.95429 | 15294 ft | 327 kts | 196° |
| 2026-04-26 18:35 | 14.96288 | -16.95969 | 14967 ft | 325 kts | 195° |
| 2026-04-26 18:35 | 14.94098 | -16.96504 | 14639 ft | 323 kts | 195° |
| 2026-04-26 18:35 | 14.91917 | -16.97035 | 14314 ft | 321 kts | 194° |
| 2026-04-26 18:36 | 14.89702 | -16.97308 | 13983 ft | 322 kts | 184° |
| 2026-04-26 18:36 | 14.87472 | -16.97280 | 13661 ft | 320 kts | 180° |
| 2026-04-26 18:36 | 14.85254 | -16.97198 | 13289 ft | 318 kts | 180° |
| 2026-04-26 18:36 | 14.83049 | -16.97132 | 12939 ft | 316 kts | 181° |
| 2026-04-26 18:37 | 14.80859 | -16.97092 | 12605 ft | 313 kts | 181° |
| 2026-04-26 18:37 | 14.78687 | -16.97068 | 12272 ft | 311 kts | 181° |
| 2026-04-26 18:37 | 14.76532 | -16.97048 | 11961 ft | 309 kts | 182° |
| 2026-04-26 18:37 | 14.74389 | -16.97029 | 11640 ft | 307 kts | 182° |
| 2026-04-26 18:38 | 14.72264 | -16.97010 | 11325 ft | 305 kts | 181° |
| 2026-04-26 18:38 | 14.70149 | -16.96991 | 11014 ft | 303 kts | 182° |
| 2026-04-26 18:38 | 14.68052 | -16.96972 | 10703 ft | 301 kts | 182° |
| 2026-04-26 18:38 | 14.65962 | -16.96954 | 10393 ft | 299 kts | 182° |
| 2026-04-26 18:39 | 14.63886 | -16.96936 | 10083 ft | 298 kts | 181° |
| 2026-04-26 18:39 | 14.61820 | -16.96918 | 9877 ft | 292 kts | 181° |
| 2026-04-26 18:39 | 14.59833 | -16.96899 | 9866 ft | 280 kts | 181° |
| 2026-04-26 18:39 | 14.57842 | -16.96882 | 9226 ft | 291 kts | 181° |
| 2026-04-26 18:40 | 14.55812 | -16.96864 | 8813 ft | 293 kts | 181° |
| 2026-04-26 18:40 | 14.53776 | -16.96846 | 8490 ft | 292 kts | 181° |
| 2026-04-26 18:40 | 14.51750 | -16.96827 | 8182 ft | 290 kts | 181° |
| 2026-04-26 18:40 | 14.49736 | -16.96810 | 7868 ft | 289 kts | 181° |
| 2026-04-26 18:41 | 14.47727 | -16.96792 | 7569 ft | 288 kts | 180° |
| 2026-04-26 18:41 | 14.45723 | -16.96774 | 7264 ft | 287 kts | 180° |
| 2026-04-26 18:41 | 14.43724 | -16.96756 | 6962 ft | 287 kts | 180° |
| 2026-04-26 18:41 | 14.41733 | -16.96753 | 6666 ft | 285 kts | 186° |
| 2026-04-26 18:42 | 14.39862 | -16.97320 | 6356 ft | 281 kts | 214° |
| 2026-04-26 18:42 | 14.38532 | -16.98695 | 6320 ft | 263 kts | 240° |
| 2026-04-26 18:42 | 14.37853 | -17.00363 | 6204 ft | 245 kts | 260° |
| 2026-04-26 18:42 | 14.37726 | -17.02062 | 6095 ft | 231 kts | 270° |
| 2026-04-26 18:43 | 14.37716 | -17.03671 | 5989 ft | 218 kts | 274° |
| 2026-04-26 18:43 | 14.38114 | -17.05104 | 5862 ft | 204 kts | 301° |
| 2026-04-26 18:43 | 14.39048 | -17.06175 | 5632 ft | 199 kts | 324° |
| 2026-04-26 18:43 | 14.40228 | -17.06811 | 5546 ft | 186 kts | 340° |
| 2026-04-26 18:44 | 14.41487 | -17.07018 | 5341 ft | 182 kts | 355° |
| 2026-04-26 18:44 | 14.42751 | -17.07041 | 5007 ft | 184 kts | 356° |
| 2026-04-26 18:44 | 14.44012 | -17.07050 | 4727 ft | 182 kts | 358° |
| 2026-04-26 18:44 | 14.45276 | -17.07061 | 4471 ft | 178 kts | 357° |
| 2026-04-26 18:45 | 14.46497 | -17.07074 | 4225 ft | 173 kts | 357° |
| 2026-04-26 18:45 | 14.47706 | -17.07088 | 3921 ft | 173 kts | 358° |
| 2026-04-26 18:45 | 14.48910 | -17.07104 | 3528 ft | 174 kts | 358° |
| 2026-04-26 18:45 | 14.50116 | -17.07119 | 3266 ft | 174 kts | 358° |
| 2026-04-26 18:46 | 14.51329 | -17.07135 | 3067 ft | 177 kts | 359° |
| 2026-04-26 18:46 | 14.52587 | -17.07146 | 2749 ft | 179 kts | 359° |
| 2026-04-26 18:46 | 14.53805 | -17.07156 | 2498 ft | 171 kts | 359° |
| 2026-04-26 18:46 | 14.54963 | -17.07168 | 2306 ft | 165 kts | 358° |
| 2026-04-26 18:47 | 14.56111 | -17.07178 | 2085 ft | 164 kts | 358° |
| 2026-04-26 18:47 | 14.57242 | -17.07190 | 1876 ft | 165 kts | 359° |
| 2026-04-26 18:47 | 14.58351 | -17.07199 | 1676 ft | 161 kts | 358° |
| 2026-04-26 18:47 | 14.59468 | -17.07210 | 1479 ft | 163 kts | 358° |
| 2026-04-26 18:48 | 14.60586 | -17.07215 | 1317 ft | 155 kts | 1° |
| 2026-04-26 18:48 | 14.61638 | -17.07219 | 1139 ft | 148 kts | 358° |
| 2026-04-26 18:48 | 14.62654 | -17.07242 | 948 ft | 145 kts | 358° |
| 2026-04-26 18:48 | 14.63644 | -17.07260 | 787 ft | 141 kts | 358° |
| 2026-04-26 18:49 | 14.64627 | -17.07251 | 545 ft | 142 kts | 357° |
| 2026-04-26 18:49 | 14.65607 | -17.07271 | 333 ft | 139 kts | 359° |
| 2026-04-26 18:49 | 14.66507 | -17.07277 | 296 ft | 109 kts | 358° |
| 2026-04-26 18:49 | 14.67053 | -17.07284 | 297 ft | 48 kts | 0° |
| 2026-04-26 18:50 | 14.67280 | -17.07284 | 294 ft | 34 kts | 359° |
| 2026-04-26 18:50 | 14.67551 | -17.07287 | 288 ft | 41 kts | 2° |
| 2026-04-26 18:50 | 14.67773 | -17.07209 | 285 ft | 24 kts | 30° |
| 2026-04-26 18:50 | 14.67830 | -17.07128 | 284 ft | 14 kts | 112° |
| 2026-04-26 18:51 | 14.67744 | -17.07096 | 287 ft | 14 kts | 180° |
| 2026-04-26 18:51 | 14.67647 | -17.07095 | 289 ft | 15 kts | 179° |
| 2026-04-26 18:51 | 14.67545 | -17.07079 | 290 ft | 12 kts | 136° |
| 2026-04-26 18:51 | 14.67525 | -17.06997 | 296 ft | 12 kts | 129° |
| 2026-04-26 18:52 | 14.67447 | -17.06980 | 296 ft | 12 kts | 179° |
| 2026-04-26 18:52 | 14.67351 | -17.06979 | 291 ft | 15 kts | 180° |
| 2026-04-26 18:52 | 14.67240 | -17.06979 | 291 ft | 14 kts | 179° |
| 2026-04-26 18:52 | 14.67182 | -17.06939 | 295 ft | 10 kts | 121° |
| 2026-04-26 18:53 | 14.67148 | -17.06882 | 293 ft | 7 kts | 122° |
| 2026-04-26 18:53 | 14.67133 | -17.06858 | 294 ft | 1 kts | 122° |
| 2026-04-26 18:53 | 14.67127 | -17.06849 | 293 ft | 1 kts | 124° |
| 2026-04-26 19:10 | 14.67127 | -17.06850 | 291 ft | 0 kts | 124° |